Time;durP1;ratioP1;P1;durP2;ratioP2;P2;SDS_P1;SDS_P2;PMS_P1;PMS_P2;Temp;Humidity;BMP_temperature;BMP_pressure;BME280_temperature;BME280_humidity;BME280_pressure;Samples;Min_cycle;Max_cycle;Signal;HPM_P1;HPM_P2
2023/06/09 00:00:48;;;;;;;5.00;3.67;;;;;;;20.40;57.45;101658.69;6204721;28;20265;-75
2023/06/09 00:04:09;;;;;;;4.20;3.35;;;;;;;20.32;57.44;101657.88;6202438;28;20221;-76
2023/06/09 00:07:33;;;;;;;4.97;4.00;;;;;;;20.35;57.38;101661.13;6194445;28;20260;-76
2023/06/09 00:10:55;;;;;;;5.43;3.40;;;;;;;20.39;57.38;101662.47;6204414;28;20443;-74
2023/06/09 00:14:16;;;;;;;4.05;3.45;;;;;;;20.22;57.47;101666.34;6194423;28;20230;-76
2023/06/09 00:17:39;;;;;;;3.80;3.35;;;;;;;20.19;58.05;101655.72;6195677;28;20232;-74
2023/06/09 00:21:01;;;;;;;6.90;3.35;;;;;;;20.19;57.90;101661.22;6202924;28;21179;-76
2023/06/09 00:24:23;;;;;;;5.15;4.65;;;;;;;20.12;58.03;101662.94;6205275;28;20324;-75
2023/06/09 00:27:45;;;;;;;4.95;3.50;;;;;;;19.99;58.67;101661.78;6193074;28;20241;-75
2023/06/09 00:31:06;;;;;;;5.25;4.30;;;;;;;19.91;58.66;101658.09;6193105;28;20236;-75
2023/06/09 00:34:27;;;;;;;3.78;3.47;;;;;;;20.01;58.21;101644.16;6184429;28;20229;-76
2023/06/09 00:37:48;;;;;;;5.50;3.70;;;;;;;19.86;58.33;101659.63;6192276;28;20256;-75
2023/06/09 00:41:09;;;;;;;6.05;4.38;;;;;;;19.76;58.78;101662.59;6195576;28;20229;-76
2023/06/09 00:44:31;;;;;;;6.18;3.92;;;;;;;19.66;59.24;101670.16;6182567;28;20521;-75
2023/06/09 00:47:52;;;;;;;4.97;3.70;;;;;;;19.71;59.67;101664.97;6199099;28;20238;-76
2023/06/09 00:51:13;;;;;;;4.20;3.80;;;;;;;19.71;59.49;101667.72;6198235;28;20317;-76
2023/06/09 00:54:34;;;;;;;5.10;4.00;;;;;;;19.52;60.15;101667.28;6187300;28;20320;-76
2023/06/09 00:57:56;;;;;;;6.90;3.92;;;;;;;19.56;60.05;101660.44;6199031;28;20695;-76
2023/06/09 01:01:19;;;;;;;4.28;3.03;;;;;;;19.58;60.05;101650.16;6200117;28;20237;-76
2023/06/09 01:04:49;;;;;;;3.42;3.17;;;;;;;19.49;59.99;101664.88;6197080;28;20531;-76
2023/06/09 01:08:19;;;;;;;4.40;3.67;;;;;;;19.45;60.54;101671.72;6194648;28;20536;-75
2023/06/09 01:11:46;;;;;;;7.60;4.82;;;;;;;19.40;60.67;101671.41;6184920;28;20228;-74
2023/06/09 01:15:12;;;;;;;6.90;4.28;;;;;;;19.33;61.15;101671.22;6189299;28;20226;-75
2023/06/09 01:18:36;;;;;;;6.25;4.28;;;;;;;19.21;61.26;101678.09;6191674;28;20319;-75
2023/06/09 01:22:02;;;;;;;5.10;3.63;;;;;;;19.34;61.17;101672.94;6182862;28;20240;-76
2023/06/09 01:25:34;;;;;;;8.60;4.68;;;;;;;19.21;61.37;101669.88;6198365;28;20240;-76
2023/06/09 01:28:58;;;;;;;5.32;3.83;;;;;;;19.29;61.38;101672.59;6190627;28;20232;-75
2023/06/09 01:32:20;;;;;;;3.67;2.78;;;;;;;19.08;62.03;101673.13;6191629;28;20252;-76
2023/06/09 01:35:42;;;;;;;6.13;4.35;;;;;;;19.02;62.15;101662.03;6204078;28;20225;-75
2023/06/09 01:39:03;;;;;;;5.38;3.63;;;;;;;19.15;61.82;101657.72;6188838;28;20253;-75
2023/06/09 01:42:26;;;;;;;5.07;4.57;;;;;;;19.13;61.94;101669.84;6191343;28;20244;-75
2023/06/09 01:45:47;;;;;;;5.72;3.67;;;;;;;19.08;62.48;101656.72;6194404;28;20226;-75
2023/06/09 01:49:14;;;;;;;4.43;3.58;;;;;;;18.95;62.70;101659.13;6172969;28;20233;-74
2023/06/09 01:52:43;;;;;;;4.57;3.88;;;;;;;18.90;62.71;101658.78;6195426;28;20585;-75
2023/06/09 01:56:09;;;;;;;12.95;4.78;;;;;;;18.85;63.11;101655.72;6200849;28;20508;-76
2023/06/09 01:59:38;;;;;;;4.80;3.15;;;;;;;18.86;63.31;101659.28;6185932;28;20618;-76
2023/06/09 02:03:01;;;;;;;5.75;4.18;;;;;;;18.83;63.68;101657.75;6195881;28;20598;-74
2023/06/09 02:06:22;;;;;;;8.32;4.13;;;;;;;18.89;63.36;101643.41;6189268;28;20233;-75
2023/06/09 02:09:45;;;;;;;4.35;3.92;;;;;;;18.83;63.77;101651.44;6189039;28;20233;-76
2023/06/09 02:13:12;;;;;;;5.57;4.60;;;;;;;18.89;63.58;101653.47;6193582;28;20232;-75
2023/06/09 02:16:34;;;;;;;5.32;4.80;;;;;;;18.83;63.65;101652.31;6195926;28;20661;-75
2023/06/09 02:19:56;;;;;;;4.55;3.90;;;;;;;18.81;63.87;101654.34;6200129;28;20229;-74
2023/06/09 02:23:19;;;;;;;5.30;3.60;;;;;;;18.59;64.29;101644.06;6201764;28;20312;-74
2023/06/09 02:26:41;;;;;;;6.20;4.82;;;;;;;18.62;64.72;101638.28;6178074;28;20233;-76
2023/06/09 02:30:02;;;;;;;7.80;5.10;;;;;;;18.63;64.58;101639.97;6204600;28;20229;-74
2023/06/09 02:33:25;;;;;;;4.82;4.28;;;;;;;18.71;64.28;101644.63;6184287;28;20233;-74
2023/06/09 02:36:47;;;;;;;4.25;3.92;;;;;;;18.69;64.44;101641.19;6184853;28;20243;-74
2023/06/09 02:40:09;;;;;;;19.80;6.07;;;;;;;18.58;64.81;101650.56;6188015;28;20229;-75
2023/06/09 02:43:30;;;;;;;6.65;4.40;;;;;;;18.69;64.54;101650.22;6195956;28;20267;-75
2023/06/09 02:46:51;;;;;;;4.97;4.40;;;;;;;18.60;64.64;101648.53;6188595;28;20228;-75
2023/06/09 02:50:13;;;;;;;7.68;4.97;;;;;;;18.58;64.72;101646.97;6199568;28;20221;-75
2023/06/09 02:53:35;;;;;;;7.85;4.47;;;;;;;18.57;64.54;101645.25;6195539;28;20232;-74
2023/06/09 02:56:59;;;;;;;6.15;4.45;;;;;;;18.38;65.35;101650.00;6183932;28;20230;-75
2023/06/09 03:00:21;;;;;;;12.98;5.00;;;;;;;18.48;65.19;101662.69;6176085;28;20233;-75
2023/06/09 03:03:43;;;;;;;6.82;5.20;;;;;;;18.38;65.29;101656.47;6178211;28;20240;-75
2023/06/09 03:07:05;;;;;;;7.50;4.80;;;;;;;18.31;65.50;101665.31;6181726;28;20254;-75
2023/06/09 03:10:26;;;;;;;7.25;4.95;;;;;;;18.43;65.30;101668.59;6169604;28;20254;-75
2023/06/09 03:13:48;;;;;;;6.47;5.10;;;;;;;18.38;65.43;101666.38;6197980;28;20236;-73
2023/06/09 03:17:09;;;;;;;6.43;5.00;;;;;;;18.43;65.12;101665.88;6184786;28;20228;-73
2023/06/09 03:20:32;;;;;;;6.88;5.18;;;;;;;18.48;65.26;101674.47;6194424;28;20837;-73
2023/06/09 03:23:56;;;;;;;6.20;5.15;;;;;;;18.31;65.26;101664.50;6174908;28;20896;-75
2023/06/09 03:27:18;;;;;;;5.45;4.95;;;;;;;18.27;65.87;101665.84;6173184;28;20226;-75
2023/06/09 03:30:42;;;;;;;8.48;4.80;;;;;;;18.34;65.64;101672.31;6181958;28;20225;-75
2023/06/09 03:34:05;;;;;;;7.13;4.85;;;;;;;18.41;65.26;101664.31;6193983;28;20261;-75
2023/06/09 03:37:27;;;;;;;7.00;5.82;;;;;;;18.38;65.31;101668.25;6192236;28;20614;-75
2023/06/09 03:40:49;;;;;;;5.95;5.28;;;;;;;18.41;65.13;101670.66;6202993;28;20642;-76
2023/06/09 03:44:11;;;;;;;8.88;5.68;;;;;;;18.37;64.87;101672.00;6207371;28;20552;-76
2023/06/09 03:47:32;;;;;;;7.78;5.68;;;;;;;18.38;65.09;101671.81;6189199;28;20260;-77
2023/06/09 03:50:53;;;;;;;6.75;5.55;;;;;;;18.46;64.42;101671.00;6195873;28;20229;-75
2023/06/09 03:54:14;;;;;;;4.40;4.00;;;;;;;18.53;64.25;101660.28;6189910;28;20237;-76
2023/06/09 03:57:36;;;;;;;5.43;4.10;;;;;;;18.36;64.50;101664.81;6182504;28;20229;-76
2023/06/09 04:00:58;;;;;;;6.80;5.25;;;;;;;18.38;64.72;101665.50;6199069;28;20230;-75
2023/06/09 04:04:21;;;;;;;6.50;5.53;;;;;;;18.52;64.61;101670.38;6190567;28;20230;-75
2023/06/09 04:07:42;;;;;;;6.45;4.72;;;;;;;18.53;64.66;101663.88;6199943;28;20570;-74
2023/06/09 04:11:03;;;;;;;5.78;4.97;;;;;;;18.42;65.18;101669.59;6181540;28;20257;-75
2023/06/09 04:14:25;;;;;;;9.93;4.95;;;;;;;18.53;65.18;101660.28;6175560;28;20230;-75
2023/06/09 04:17:47;;;;;;;7.50;4.70;;;;;;;18.55;65.44;101666.41;6189199;28;20237;-74
2023/06/09 04:21:11;;;;;;;4.47;4.03;;;;;;;18.54;65.55;101668.31;6187962;28;20607;-75
2023/06/09 04:24:32;;;;;;;5.07;4.57;;;;;;;18.58;65.88;101677.88;6189880;28;20241;-75
2023/06/09 04:27:53;;;;;;;8.85;4.53;;;;;;;18.66;65.76;101672.44;6193791;28;20787;-76
2023/06/09 04:31:18;;;;;;;6.00;4.30;;;;;;;18.67;66.05;101673.28;6203157;28;20233;-75
2023/06/09 04:34:39;;;;;;;4.75;3.55;;;;;;;18.68;65.68;101675.84;6192594;28;20237;-74
2023/06/09 04:38:01;;;;;;;4.72;3.75;;;;;;;18.72;65.89;101676.34;6181437;28;20561;-74
2023/06/09 04:41:25;;;;;;;5.63;3.88;;;;;;;18.77;65.92;101676.72;6192232;28;20241;-74
2023/06/09 04:44:47;;;;;;;4.10;3.17;;;;;;;18.70;66.02;101684.72;6176145;28;20573;-76
2023/06/09 04:48:12;;;;;;;5.97;3.50;;;;;;;18.76;65.69;101683.19;6195617;28;20395;-75
2023/06/09 04:51:41;;;;;;;4.45;3.33;;;;;;;18.83;65.39;101687.81;6192911;28;20229;-75
2023/06/09 04:55:03;;;;;;;6.70;5.15;;;;;;;18.85;65.31;101693.09;6189584;28;20256;-77
2023/06/09 04:58:25;;;;;;;9.85;4.68;;;;;;;19.02;64.84;101695.66;6180106;28;20236;-75
2023/06/09 05:01:47;;;;;;;8.82;4.13;;;;;;;19.06;65.13;101683.38;6165529;28;20241;-75
2023/06/09 05:05:10;;;;;;;6.60;4.28;;;;;;;19.07;64.97;101689.69;6186851;28;20229;-77
2023/06/09 05:08:31;;;;;;;5.43;4.00;;;;;;;19.13;64.83;101694.47;6186904;28;20324;-75
2023/06/09 05:11:52;;;;;;;5.57;4.03;;;;;;;19.29;63.89;101690.88;6180613;28;20236;-75
2023/06/09 05:15:14;;;;;;;9.35;3.63;;;;;;;19.30;63.99;101687.09;6204601;28;21782;-75
2023/06/09 05:18:35;;;;;;;5.47;4.75;;;;;;;19.40;63.63;101694.13;6182173;28;20233;-76
2023/06/09 05:21:58;;;;;;;5.40;4.00;;;;;;;19.48;63.45;101701.47;6183094;28;20327;-73
2023/06/09 05:25:20;;;;;;;6.03;3.75;;;;;;;19.60;63.16;101692.75;6181703;28;20527;-71
2023/06/09 05:28:42;;;;;;;4.43;2.95;;;;;;;19.80;62.70;101691.31;6176297;28;20237;-72
2023/06/09 05:32:03;;;;;;;7.15;3.97;;;;;;;20.23;63.08;101689.13;6189397;28;20823;-67
2023/06/09 05:35:25;;;;;;;6.40;3.95;;;;;;;20.52;61.15;101686.53;6192559;28;20259;-67
2023/06/09 05:38:47;;;;;;;5.43;3.72;;;;;;;20.79;61.13;101688.75;6182397;28;20609;-68
2023/06/09 05:42:08;;;;;;;4.55;3.90;;;;;;;21.03;60.34;101693.22;6172629;28;20641;-67
2023/06/09 05:45:29;;;;;;;6.82;2.90;;;;;;;21.37;59.48;101696.34;6200168;28;20317;-67
2023/06/09 05:48:51;;;;;;;8.35;6.00;;;;;;;20.96;57.89;101700.44;6197643;28;20226;-67
2023/06/09 05:52:12;;;;;;;7.75;4.03;;;;;;;20.76;58.36;101705.56;6185438;28;20670;-67
2023/06/09 05:55:35;;;;;;;5.60;3.88;;;;;;;20.70;57.89;101698.06;6200775;28;20268;-68
2023/06/09 05:59:03;;;;;;;6.80;3.53;;;;;;;21.03;57.29;101704.19;6188017;28;20228;-67
2023/06/09 06:02:24;;;;;;;4.40;2.78;;;;;;;21.15;56.33;101702.72;6184126;28;20251;-67
2023/06/09 06:05:45;;;;;;;5.03;3.05;;;;;;;21.28;56.06;101702.94;6181652;28;20586;-67
2023/06/09 06:09:06;;;;;;;2.83;2.63;;;;;;;21.03;55.59;101702.28;6188933;28;20586;-68
2023/06/09 06:12:28;;;;;;;3.40;3.00;;;;;;;21.27;55.98;101703.97;6186556;28;20261;-67
2023/06/09 06:15:49;;;;;;;5.32;2.83;;;;;;;21.44;55.09;101705.53;6201945;28;20423;-67
2023/06/09 06:19:11;;;;;;;8.45;4.13;;;;;;;21.49;55.50;101700.31;6199342;28;20779;-68
2023/06/09 06:22:32;;;;;;;3.78;2.65;;;;;;;21.65;55.06;101696.56;6196747;28;20236;-69
2023/06/09 06:25:53;;;;;;;4.07;3.35;;;;;;;21.64;54.90;101703.94;6192204;28;22312;-68
2023/06/09 06:29:16;;;;;;;5.35;3.63;;;;;;;21.69;54.06;101701.50;6202563;28;20249;-69
2023/06/09 06:32:40;;;;;;;4.05;2.45;;;;;;;21.76;54.43;101702.44;6193927;28;20224;-69
2023/06/09 06:36:01;;;;;;;7.88;3.08;;;;;;;21.80;53.61;101708.44;6196897;28;20237;-68
2023/06/09 06:39:22;;;;;;;4.05;3.40;;;;;;;21.88;53.44;101703.69;6192144;28;20237;-67
2023/06/09 06:42:43;;;;;;;3.38;2.65;;;;;;;22.04;53.91;101713.66;6193030;28;20701;-68
2023/06/09 06:46:12;;;;;;;3.53;2.90;;;;;;;22.02;53.70;101722.09;6190184;28;20499;-68
2023/06/09 06:49:32;;;;;;;5.90;3.58;;;;;;;22.25;53.11;101717.34;6188835;28;20228;-67
2023/06/09 06:52:53;;;;;;;5.68;3.22;;;;;;;22.29;53.33;101715.03;6181656;28;20247;-67
2023/06/09 06:56:15;;;;;;;3.50;2.88;;;;;;;22.39;53.19;101715.59;6183070;28;20225;-68
2023/06/09 06:59:35;;;;;;;4.63;2.85;;;;;;;22.62;52.92;101720.97;6201396;28;20249;-67
2023/06/09 07:02:58;;;;;;;3.95;2.80;;;;;;;22.83;52.56;101719.09;6181853;28;20730;-67
2023/06/09 07:06:20;;;;;;;5.03;3.67;;;;;;;22.78;52.46;101727.06;6193445;28;20240;-68
2023/06/09 07:09:41;;;;;;;4.85;3.15;;;;;;;22.95;52.14;101724.94;6198987;28;20713;-69
2023/06/09 07:13:02;;;;;;;7.30;3.08;;;;;;;22.97;52.23;101722.81;6199091;28;20983;-67
2023/06/09 07:16:23;;;;;;;4.55;3.75;;;;;;;23.06;51.67;101735.41;6210814;28;20319;-72
2023/06/09 07:19:45;;;;;;;5.85;3.50;;;;;;;22.89;51.85;101734.81;6208023;28;20317;-66
2023/06/09 07:23:06;;;;;;;4.18;3.50;;;;;;;22.71;52.72;101733.56;6193798;28;20333;-67
2023/06/09 07:26:29;;;;;;;4.72;3.20;;;;;;;23.06;53.09;101735.41;6202270;28;20225;-67
2023/06/09 07:29:50;;;;;;;6.68;3.60;;;;;;;23.26;52.66;101733.69;6204777;28;20549;-69
2023/06/09 07:33:13;;;;;;;7.60;3.80;;;;;;;23.47;52.81;101736.44;6197926;28;20237;-67
2023/06/09 07:36:37;;;;;;;7.55;4.82;;;;;;;23.50;52.76;101729.72;6205088;28;20316;-68
2023/06/09 07:39:58;;;;;;;4.53;4.13;;;;;;;23.57;52.46;101738.88;6208092;28;21233;-68
2023/06/09 07:43:19;;;;;;;6.47;4.22;;;;;;;23.39;52.32;101735.75;6194211;28;20266;-70
2023/06/09 07:46:40;;;;;;;6.05;4.18;;;;;;;23.54;52.05;101734.63;6204930;28;20241;-70
2023/06/09 07:50:03;;;;;;;5.10;3.55;;;;;;;23.74;52.03;101743.00;6202808;28;20777;-70
2023/06/09 07:53:25;;;;;;;5.47;3.53;;;;;;;23.79;51.41;101743.28;6198899;28;20232;-68
2023/06/09 07:56:49;;;;;;;3.45;3.15;;;;;;;23.95;51.43;101740.19;6194704;28;20252;-68
2023/06/09 08:00:12;;;;;;;3.90;3.53;;;;;;;24.15;51.13;101732.94;6216040;28;20236;-68
2023/06/09 08:03:35;;;;;;;3.17;2.97;;;;;;;24.26;50.50;101735.09;6201210;28;20738;-68
2023/06/09 08:06:58;;;;;;;4.40;2.60;;;;;;;24.36;49.81;101740.25;6181560;28;20237;-73
2023/06/09 08:10:21;;;;;;;5.97;4.18;;;;;;;24.52;49.45;101743.50;6195765;28;20237;-72
2023/06/09 08:13:42;;;;;;;5.45;3.38;;;;;;;24.46;49.15;101740.72;6200858;28;20224;-66
2023/06/09 08:17:03;;;;;;;3.85;3.17;;;;;;;24.54;48.77;101735.00;6187997;28;20221;-71
2023/06/09 08:20:24;;;;;;;4.60;4.03;;;;;;;24.58;48.22;101736.31;6216951;28;20233;-70
2023/06/09 08:23:45;;;;;;;3.35;3.05;;;;;;;24.70;48.21;101740.16;6211305;28;20613;-71
2023/06/09 08:27:07;;;;;;;5.72;4.18;;;;;;;24.95;48.50;101737.72;6197628;28;20243;-71
2023/06/09 08:30:28;;;;;;;5.93;3.28;;;;;;;25.03;47.95;101735.59;6219912;28;20614;-70
2023/06/09 08:33:50;;;;;;;4.15;3.28;;;;;;;24.67;47.89;101726.78;6211483;28;20240;-70
2023/06/09 08:37:12;;;;;;;4.50;4.10;;;;;;;24.96;48.17;101740.28;6193722;28;20229;-71
2023/06/09 08:40:35;;;;;;;5.15;3.50;;;;;;;25.32;47.20;101735.19;6220260;28;20233;-71
2023/06/09 08:43:57;;;;;;;4.90;3.30;;;;;;;24.66;47.19;101727.84;6209073;28;20228;-70
2023/06/09 08:47:21;;;;;;;5.80;3.88;;;;;;;24.70;48.41;101728.28;6202817;28;20237;-70
2023/06/09 08:50:42;;;;;;;5.72;3.97;;;;;;;25.39;47.36;101727.78;6213645;28;20312;-71
2023/06/09 08:54:03;;;;;;;3.75;3.30;;;;;;;25.61;46.61;101728.47;6210325;28;20638;-70
2023/06/09 08:57:25;;;;;;;5.00;3.95;;;;;;;25.91;45.67;101720.56;6199124;28;20232;-70
2023/06/09 09:00:48;;;;;;;4.35;3.38;;;;;;;25.59;45.34;101713.16;6203446;28;20252;-70
2023/06/09 09:04:09;;;;;;;6.20;3.22;;;;;;;25.68;45.30;101717.41;6207206;28;20319;-70
2023/06/09 09:07:30;;;;;;;4.78;3.83;;;;;;;25.99;45.21;101726.66;6201165;28;20232;-70
2023/06/09 09:10:51;;;;;;;6.10;3.30;;;;;;;25.86;44.56;101717.56;6213767;28;20233;-69
2023/06/09 09:14:14;;;;;;;3.25;2.72;;;;;;;26.00;44.61;101725.63;6214626;28;20221;-70
2023/06/09 09:17:36;;;;;;;3.85;3.28;;;;;;;25.99;44.24;101721.16;6205882;28;20228;-70
2023/06/09 09:20:57;;;;;;;5.13;3.10;;;;;;;26.05;43.75;101725.84;6211959;28;20642;-70
2023/06/09 09:24:18;;;;;;;3.75;3.00;;;;;;;26.34;41.78;101712.56;6208137;28;20650;-71
2023/06/09 09:27:39;;;;;;;4.55;2.92;;;;;;;26.16;40.61;101715.19;6200360;28;20224;-70
2023/06/09 09:31:01;;;;;;;4.60;3.28;;;;;;;26.17;39.95;101719.66;6213404;28;20257;-70
2023/06/09 09:34:26;;;;;;;5.05;3.03;;;;;;;26.23;39.14;101721.53;6210748;28;20230;-69
2023/06/09 09:37:47;;;;;;;4.90;2.42;;;;;;;26.17;37.69;101719.66;6204692;28;20315;-71
2023/06/09 09:41:08;;;;;;;2.60;2.40;;;;;;;26.11;35.46;101722.22;6212961;28;20221;-71
2023/06/09 09:44:36;;;;;;;8.43;2.90;;;;;;;26.39;38.80;101721.91;6205807;28;20311;-70
2023/06/09 09:48:08;;;;;;;3.13;2.83;;;;;;;26.41;36.36;101722.53;6206626;28;20656;-70
2023/06/09 09:51:34;;;;;;;2.90;2.33;;;;;;;26.57;36.53;101722.06;6205143;28;20225;-71
2023/06/09 09:54:56;;;;;;;2.45;2.05;;;;;;;26.47;37.75;101721.66;6205011;28;20300;-70
2023/06/09 09:58:17;;;;;;;3.28;2.90;;;;;;;26.57;38.98;101726.72;6171981;28;20828;-70
2023/06/09 10:01:38;;;;;;;2.92;2.72;;;;;;;26.74;39.67;101717.72;6191512;28;20221;-71
2023/06/09 10:05:03;;;;;;;3.63;2.75;;;;;;;26.95;38.65;101710.16;6200727;28;20250;-70
2023/06/09 10:08:28;;;;;;;3.58;2.70;;;;;;;27.22;38.81;101719.97;6187572;28;20240;-70
2023/06/09 10:11:51;;;;;;;3.50;2.35;;;;;;;27.20;38.29;101711.03;6196265;28;20237;-71
2023/06/09 10:15:14;;;;;;;4.60;2.58;;;;;;;27.10;39.64;101717.06;6215163;28;20220;-71
2023/06/09 10:18:40;;;;;;;2.60;2.33;;;;;;;27.32;40.28;101707.31;6210499;28;20672;-73
2023/06/09 10:22:02;;;;;;;4.78;3.28;;;;;;;27.32;39.44;101707.31;6186782;28;20236;-71
2023/06/09 10:25:25;;;;;;;2.90;2.70;;;;;;;27.33;36.42;101709.00;6199723;28;21032;-72
2023/06/09 10:28:45;;;;;;;2.55;2.20;;;;;;;27.25;36.75;101700.09;6210063;28;20236;-72
2023/06/09 10:32:09;;;;;;;4.15;2.80;;;;;;;27.48;36.46;101703.13;6199396;28;20236;-69
2023/06/09 10:35:32;;;;;;;4.93;3.58;;;;;;;27.47;36.65;101707.00;6213050;28;20241;-69
2023/06/09 10:38:55;;;;;;;3.88;3.30;;;;;;;27.66;36.07;101705.97;6189786;28;20303;-70
2023/06/09 10:42:26;;;;;;;3.20;2.45;;;;;;;27.63;35.17;101706.41;6190260;28;20252;-69
2023/06/09 10:45:52;;;;;;;6.13;3.38;;;;;;;27.66;34.75;101697.66;6192378;28;20237;-73
2023/06/09 10:49:38;;;;;;;3.45;2.72;;;;;;;27.90;36.37;101693.97;6201440;28;20221;-73
2023/06/09 10:53:01;;;;;;;3.20;2.72;;;;;;;27.73;36.56;101689.25;6205308;28;20602;-71
2023/06/09 10:56:35;;;;;;;3.40;3.10;;;;;;;27.88;36.74;101687.81;6209137;28;20307;-73
2023/06/09 10:59:58;;;;;;;4.43;3.17;;;;;;;28.18;36.09;101686.00;6207106;28;20236;-72
2023/06/09 11:03:30;;;;;;;4.45;3.42;;;;;;;28.31;35.25;101690.53;6212297;28;20224;-72
2023/06/09 11:07:11;;;;;;;2.78;2.58;;;;;;;28.38;35.01;101686.59;6204153;28;20569;-72
2023/06/09 11:10:32;;;;;;;3.10;2.30;;;;;;;28.28;35.02;101683.53;6218768;28;20319;-71
2023/06/09 11:13:53;;;;;;;3.83;3.40;;;;;;;28.44;35.76;101674.56;6202272;28;20240;-70
2023/06/09 11:17:22;;;;;;;4.63;3.28;;;;;;;28.27;35.79;101681.84;6194291;28;20232;-70
2023/06/09 11:20:43;;;;;;;3.65;3.28;;;;;;;28.40;36.33;101678.91;6208558;28;20229;-71
2023/06/09 11:24:04;;;;;;;2.22;1.95;;;;;;;28.58;34.00;101680.81;6207275;28;20232;-69
2023/06/09 11:27:25;;;;;;;3.08;2.33;;;;;;;28.48;32.50;101678.56;6193936;28;20311;-69
2023/06/09 11:31:11;;;;;;;4.97;3.35;;;;;;;29.09;32.59;101675.56;6208830;28;20221;-69
2023/06/09 11:34:52;;;;;;;4.18;2.78;;;;;;;29.65;32.64;101666.69;6200868;28;20233;-70
2023/06/09 11:38:21;;;;;;;3.10;2.75;;;;;;;29.88;32.66;101660.28;6201304;28;20237;-72
2023/06/09 11:41:42;;;;;;;5.22;3.13;;;;;;;29.78;33.56;101663.69;6206829;28;20311;-72
2023/06/09 11:45:06;;;;;;;2.72;2.47;;;;;;;29.68;31.95;101662.56;6198571;28;20320;-69
2023/06/09 11:48:27;;;;;;;2.70;2.42;;;;;;;29.90;32.24;101656.16;6205227;28;20239;-71
2023/06/09 11:52:06;;;;;;;3.00;2.70;;;;;;;30.22;31.22;101669.66;6192796;28;20233;-70
2023/06/09 11:55:27;;;;;;;3.33;2.33;;;;;;;30.07;31.14;101659.03;6207929;28;20230;-69
2023/06/09 11:58:48;;;;;;;3.75;2.63;;;;;;;30.36;31.85;101663.59;6192644;28;20613;-71
2023/06/09 12:02:11;;;;;;;4.22;2.88;;;;;;;30.37;32.88;101656.09;6188025;28;20331;-72
2023/06/09 12:05:33;;;;;;;3.25;2.83;;;;;;;30.49;31.41;101654.09;6215564;28;20245;-71
2023/06/09 12:09:16;;;;;;;4.40;2.38;;;;;;;30.46;32.23;101658.22;6188655;28;20232;-70
2023/06/09 12:12:45;;;;;;;3.15;2.45;;;;;;;30.67;31.92;101651.09;6189788;28;20619;-71
2023/06/09 12:16:06;;;;;;;3.72;2.20;;;;;;;30.87;31.57;101657.09;6208251;28;20232;-71
2023/06/09 12:19:29;;;;;;;2.55;2.30;;;;;;;30.59;30.61;101652.34;6209186;28;20240;-71
2023/06/09 12:22:50;;;;;;;2.58;2.17;;;;;;;30.89;30.01;101646.53;6191810;28;20516;-73
2023/06/09 12:26:20;;;;;;;3.38;2.65;;;;;;;30.80;29.37;101656.34;6203867;28;21983;-72
2023/06/09 12:29:41;;;;;;;3.15;2.85;;;;;;;31.20;29.70;101656.25;6205353;28;20232;-72
2023/06/09 12:33:10;;;;;;;4.00;2.30;;;;;;;31.16;30.02;101641.16;6196039;28;20222;-70
2023/06/09 12:36:40;;;;;;;3.20;2.65;;;;;;;31.52;28.56;101641.47;6204025;28;20533;-69
2023/06/09 12:40:05;;;;;;;2.97;2.30;;;;;;;31.64;27.57;101641.38;6206575;28;20233;-70
2023/06/09 12:43:28;;;;;;;1.95;1.83;;;;;;;30.90;27.15;101644.56;6189146;28;20237;-72
2023/06/09 12:46:54;;;;;;;2.20;2.05;;;;;;;31.18;27.66;101638.94;6191559;28;20241;-71
2023/06/09 12:50:15;;;;;;;2.67;2.08;;;;;;;31.50;27.04;101640.06;6208654;28;20697;-71
2023/06/09 12:53:36;;;;;;;3.15;1.85;;;;;;;31.39;26.31;101636.28;6208206;28;20232;-71
2023/06/09 12:56:57;;;;;;;3.22;2.20;;;;;;;31.29;25.72;101646.38;6202811;28;20323;-71
2023/06/09 13:00:21;;;;;;;3.05;2.28;;;;;;;31.33;26.06;101634.44;6218930;28;20222;-71
2023/06/09 13:03:42;;;;;;;4.40;3.28;;;;;;;31.51;26.16;101641.75;6206488;28;20225;-71
2023/06/09 13:07:04;;;;;;;3.90;2.05;;;;;;;31.72;26.90;101632.56;6198998;28;20783;-70
2023/06/09 13:10:24;;;;;;;7.90;3.22;;;;;;;31.46;26.43;101631.34;6214773;28;20229;-70
2023/06/09 13:13:45;;;;;;;7.68;2.30;;;;;;;31.97;26.67;101626.53;6207307;28;20225;-70
2023/06/09 13:17:08;;;;;;;3.03;2.67;;;;;;;32.66;25.22;101625.69;6196537;28;20322;-71
2023/06/09 13:20:29;;;;;;;2.38;2.08;;;;;;;33.60;23.71;101632.41;6211131;28;20233;-69
2023/06/09 13:23:50;;;;;;;7.82;3.55;;;;;;;34.96;23.90;101624.53;6184386;28;20229;-71
2023/06/09 13:27:11;;;;;;;6.70;5.28;;;;;;;36.64;22.98;101623.81;6194369;28;20780;-70
2023/06/09 13:30:31;;;;;;;3.67;3.10;;;;;;;36.72;22.26;101624.06;6200776;28;20596;-72
2023/06/09 13:33:54;;;;;;;4.18;3.78;;;;;;;37.22;21.65;101633.28;6208001;28;20229;-72
2023/06/09 13:37:15;;;;;;;6.55;5.95;;;;;;;37.78;21.83;101634.38;6182520;28;20748;-72
2023/06/09 13:40:39;;;;;;;3.88;3.47;;;;;;;36.62;21.77;101629.75;6191966;28;20834;-73
2023/06/09 13:44:00;;;;;;;10.35;9.27;;;;;;;37.52;22.26;101621.72;6205997;28;20760;-72
2023/06/09 13:47:21;;;;;;;11.32;10.15;;;;;;;37.31;22.43;101631.47;6191925;28;20307;-72
2023/06/09 13:50:43;;;;;;;8.02;4.32;;;;;;;36.78;21.99;101628.50;6210135;28;20352;-73
2023/06/09 13:54:04;;;;;;;4.40;4.00;;;;;;;36.00;22.93;101626.69;6200325;28;20220;-73
2023/06/09 13:57:25;;;;;;;4.95;4.40;;;;;;;35.19;23.41;101623.97;6196981;28;20224;-72
2023/06/09 14:00:46;;;;;;;3.75;3.45;;;;;;;35.35;23.41;101622.88;6207758;28;20331;-71
2023/06/09 14:04:07;;;;;;;4.22;3.92;;;;;;;34.76;23.89;101626.44;6198759;28;20229;-72
2023/06/09 14:07:29;;;;;;;3.78;3.15;;;;;;;34.19;24.58;101618.19;6187990;28;20236;-72
2023/06/09 14:10:50;;;;;;;3.60;2.58;;;;;;;33.72;24.37;101616.25;6211276;28;20237;-72
2023/06/09 14:14:11;;;;;;;4.10;3.70;;;;;;;33.45;25.49;101603.47;6192523;28;20579;-72
2023/06/09 14:17:32;;;;;;;2.47;2.25;;;;;;;32.53;26.15;101608.50;6188884;28;20609;-72
2023/06/09 14:20:52;;;;;;;3.42;2.83;;;;;;;32.26;26.45;101619.63;6190832;28;20229;-72
2023/06/09 14:24:14;;;;;;;6.03;5.43;;;;;;;32.42;26.67;101624.28;6197034;28;20238;-72
2023/06/09 14:27:35;;;;;;;11.15;9.73;;;;;;;32.20;27.11;101623.47;6182741;28;20237;-73
2023/06/09 14:30:56;;;;;;;5.50;5.00;;;;;;;32.30;26.23;101618.00;6196799;28;20228;-73
2023/06/09 14:34:18;;;;;;;3.35;3.05;;;;;;;32.24;26.33;101633.84;6188192;28;20226;-73
2023/06/09 14:37:39;;;;;;;7.10;6.30;;;;;;;32.25;25.92;101623.53;6191933;28;20232;-72
2023/06/09 14:41:01;;;;;;;4.70;4.28;;;;;;;32.50;26.31;101626.66;6199717;28;20229;-72
2023/06/09 14:44:22;;;;;;;3.80;3.50;;;;;;;32.33;25.59;101620.28;6184274;28;20225;-72
2023/06/09 14:47:44;;;;;;;5.32;3.00;;;;;;;32.48;24.92;101620.47;6190066;28;20236;-72
2023/06/09 14:51:04;;;;;;;3.58;3.22;;;;;;;32.69;24.76;101619.56;6193752;28;20233;-72
2023/06/09 14:54:25;;;;;;;2.53;2.33;;;;;;;32.02;24.61;101627.41;6184364;28;20236;-70
2023/06/09 14:57:47;;;;;;;3.47;3.17;;;;;;;31.86;25.22;101616.28;6179702;28;20265;-72
2023/06/09 15:01:08;;;;;;;5.28;4.25;;;;;;;31.70;25.42;101612.47;6176720;28;20618;-73
2023/06/09 15:04:29;;;;;;;3.67;3.30;;;;;;;32.05;26.16;101612.13;6186136;28;20254;-75
2023/06/09 15:07:54;;;;;;;5.20;3.15;;;;;;;31.94;26.85;101616.72;6191547;28;20240;-72
2023/06/09 15:11:15;;;;;;;3.78;2.03;;;;;;;32.01;26.78;101614.59;6199902;28;22311;-72
2023/06/09 15:14:37;;;;;;;3.33;2.95;;;;;;;31.92;27.56;101606.88;6206577;28;20229;-71
2023/06/09 15:17:59;;;;;;;3.00;1.92;;;;;;;31.50;27.09;101615.78;6194802;28;20232;-73
2023/06/09 15:21:20;;;;;;;5.70;4.55;;;;;;;31.65;27.12;101617.97;6203735;28;20240;-73
2023/06/09 15:24:41;;;;;;;7.47;5.70;;;;;;;31.87;27.97;101609.63;6189557;28;20229;-72
2023/06/09 15:28:03;;;;;;;4.53;3.25;;;;;;;31.70;28.93;101609.69;6197143;28;20237;-72
2023/06/09 15:31:25;;;;;;;3.55;2.85;;;;;;;31.62;29.74;101614.84;6207276;28;20230;-72
2023/06/09 15:34:46;;;;;;;4.43;4.03;;;;;;;31.25;30.74;101606.19;6195752;28;20224;-72
2023/06/09 15:38:08;;;;;;;4.25;3.40;;;;;;;31.60;31.90;101614.25;6191320;28;20244;-72
2023/06/09 15:41:29;;;;;;;3.03;2.60;;;;;;;31.19;31.59;101608.03;6196729;28;20237;-72